createdAt,value
2023-02-02T00:02:03.763Z,1.03
2023-02-02T00:04:33.131Z,1.67
2023-02-02T00:07:00.085Z,0.97
2023-02-02T00:09:29.866Z,1.97
2023-02-02T00:11:57.491Z,1.40
2023-02-02T00:14:24.917Z,0.87
2023-02-02T00:16:54.016Z,0.73
2023-02-02T00:19:30.275Z,0.60
2023-02-02T00:21:57.489Z,1.20
2023-02-02T00:24:24.626Z,1.10
2023-02-02T00:26:56.908Z,1.30
2023-02-02T00:29:29.163Z,1.50
2023-02-02T00:31:56.002Z,0.50
2023-02-02T00:34:23.306Z,1.53
2023-02-02T00:36:50.876Z,0.80
2023-02-02T00:39:25.881Z,1.10
2023-02-02T00:41:52.506Z,1.87
2023-02-02T00:44:37.781Z,1.20
2023-02-02T00:47:04.942Z,0.70
2023-02-02T00:49:31.563Z,1.63
2023-02-02T00:51:59.477Z,0.77
2023-02-02T00:54:26.784Z,1.10
2023-02-02T00:56:53.340Z,0.90
2023-02-02T00:59:19.923Z,1.30
2023-02-02T01:01:46.518Z,0.77
2023-02-02T01:04:13.117Z,1.30
2023-02-02T01:06:39.704Z,0.60
2023-02-02T01:09:06.288Z,0.60
2023-02-02T01:11:33.069Z,1.10
2023-02-02T01:13:59.670Z,0.93
2023-02-02T01:16:26.518Z,0.87
2023-02-02T01:18:53.201Z,1.20
2023-02-02T01:21:20.061Z,1.17
2023-02-02T01:23:46.869Z,1.70
2023-02-02T01:26:14.539Z,0.97
2023-02-02T01:28:41.530Z,1.20
2023-02-02T01:31:13.369Z,1.30
2023-02-02T01:33:40.044Z,1.23
2023-02-02T01:36:12.082Z,1.07
2023-02-02T01:38:38.785Z,1.70
2023-02-02T01:41:06.008Z,1.47
2023-02-02T01:43:42.150Z,0.87
2023-02-02T01:46:17.049Z,0.97
2023-02-02T01:48:53.137Z,0.50
2023-02-02T01:51:25.511Z,0.90
2023-02-02T01:53:56.158Z,1.23
2023-02-02T01:56:32.406Z,1.90
2023-02-02T01:58:59.865Z,1.23
2023-02-02T02:01:27.168Z,1.27
2023-02-02T02:03:54.298Z,1.07
2023-02-02T02:06:21.208Z,0.57
2023-02-02T02:09:00.110Z,1.20
2023-02-02T02:11:27.414Z,0.60
2023-02-02T02:14:15.456Z,0.60
2023-02-02T02:17:31.530Z,1.00
2023-02-02T02:21:01.365Z,0.70
2023-02-02T02:24:00.123Z,0.90
2023-02-02T02:27:00.663Z,0.43
2023-02-02T02:29:48.793Z,0.87
2023-02-02T02:32:38.701Z,1.30
2023-02-02T02:35:32.439Z,0.93
2023-02-02T02:38:23.606Z,0.93
2023-02-02T02:40:56.615Z,0.70
2023-02-02T02:43:29.201Z,1.03
2023-02-02T02:45:56.364Z,1.30
2023-02-02T02:48:23.279Z,1.50
2023-02-02T02:50:50.035Z,1.40
2023-02-02T02:53:21.346Z,0.47
2023-02-02T02:56:13.178Z,0.93
2023-02-02T02:59:21.217Z,0.70
2023-02-02T03:02:06.621Z,0.83
2023-02-02T03:04:45.655Z,0.77
2023-02-02T03:07:23.226Z,0.60
2023-02-02T03:09:52.776Z,0.70
2023-02-02T03:12:19.562Z,0.60
2023-02-02T03:14:46.193Z,0.83
2023-02-02T03:17:12.806Z,1.13
2023-02-02T03:19:39.412Z,1.03
2023-02-02T03:22:05.978Z,1.23
2023-02-02T03:24:32.532Z,1.57
2023-02-02T03:26:59.217Z,0.90
2023-02-02T03:29:26.029Z,1.07
2023-02-02T03:31:52.609Z,1.37
2023-02-02T03:34:19.253Z,1.43
2023-02-02T03:36:45.804Z,1.13
2023-02-02T03:39:12.354Z,1.10
2023-02-02T03:41:38.936Z,1.03
2023-02-02T03:44:05.588Z,1.03
2023-02-02T03:46:32.154Z,0.67
2023-02-02T03:48:58.784Z,1.03
2023-02-02T03:51:25.381Z,0.23
2023-02-02T03:53:51.927Z,0.90
2023-02-02T03:56:19.452Z,1.00
2023-02-02T03:58:47.105Z,0.50
2023-02-02T04:01:14.564Z,0.87
2023-02-02T04:03:41.414Z,1.17
2023-02-02T04:06:08.612Z,1.40
2023-02-02T04:08:35.305Z,0.90
2023-02-02T04:11:02.088Z,1.23
2023-02-02T04:13:29.114Z,0.77
2023-02-02T04:16:00.336Z,1.13
2023-02-02T04:18:27.588Z,0.77
2023-02-02T04:21:01.680Z,0.83
2023-02-02T04:23:31.873Z,1.23
2023-02-02T04:25:59.192Z,0.50
2023-02-02T04:28:26.971Z,0.57
2023-02-02T04:30:55.103Z,1.67
2023-02-02T04:33:23.855Z,1.83
2023-02-02T04:35:50.891Z,0.57
2023-02-02T04:38:17.859Z,0.53
2023-02-02T04:40:46.638Z,1.60
2023-02-02T04:43:13.499Z,1.43
2023-02-02T04:45:40.398Z,0.80
2023-02-02T04:48:06.956Z,1.83
2023-02-02T04:50:33.557Z,0.70
2023-02-02T04:53:00.119Z,1.43
2023-02-02T04:55:26.928Z,1.10
2023-02-02T04:57:53.675Z,0.47
2023-02-02T05:00:20.460Z,0.93
2023-02-02T05:02:47.024Z,0.80
2023-02-02T05:05:14.719Z,0.53
2023-02-02T05:07:41.804Z,1.10
2023-02-02T05:10:10.265Z,1.07
2023-02-02T05:12:36.871Z,1.70
2023-02-02T05:15:05.381Z,0.63
2023-02-02T05:17:32.428Z,1.27
2023-02-02T05:19:58.994Z,0.60
2023-02-02T05:22:25.796Z,0.80
2023-02-02T05:24:52.362Z,0.60
2023-02-02T05:27:18.933Z,0.97
2023-02-02T05:29:47.154Z,1.43
2023-02-02T05:32:13.791Z,0.90
2023-02-02T05:34:40.335Z,1.13
2023-02-02T05:37:06.888Z,0.67
2023-02-02T05:39:33.576Z,0.70
2023-02-02T05:42:00.159Z,1.00
2023-02-02T05:44:26.746Z,0.67
2023-02-02T05:46:53.339Z,0.73
2023-02-02T05:49:19.930Z,0.57
2023-02-02T05:51:49.643Z,1.90
2023-02-02T05:54:20.196Z,0.73
2023-02-02T05:56:48.408Z,0.33
2023-02-02T05:59:15.090Z,0.53
2023-02-02T06:01:41.651Z,0.80
2023-02-02T06:04:08.271Z,0.93
2023-02-02T06:06:35.769Z,0.33
2023-02-02T06:09:02.796Z,0.93
2023-02-02T06:11:29.550Z,0.33
2023-02-02T06:13:56.374Z,0.43
2023-02-02T06:16:23.071Z,1.23
2023-02-02T06:18:49.629Z,1.27
2023-02-02T06:21:16.477Z,1.57
2023-02-02T06:23:45.945Z,0.80
2023-02-02T06:26:13.961Z,0.60
2023-02-02T06:28:40.790Z,0.37
2023-02-02T06:31:09.485Z,1.67
2023-02-02T06:33:36.290Z,0.60
2023-02-02T06:36:05.727Z,1.20
2023-02-02T06:38:32.823Z,0.70
2023-02-02T06:41:00.376Z,0.50
2023-02-02T06:43:27.553Z,1.50
2023-02-02T06:45:54.159Z,0.87
2023-02-02T06:48:20.761Z,1.13
2023-02-02T06:50:47.314Z,1.03
2023-02-02T06:53:13.930Z,0.93
2023-02-02T06:55:40.469Z,0.73
2023-02-02T06:58:07.127Z,0.60
2023-02-02T07:00:36.823Z,0.43
2023-02-02T07:03:03.497Z,0.73
2023-02-02T07:05:30.881Z,0.53
2023-02-02T07:07:57.679Z,1.17
2023-02-02T07:11:13.447Z,0.60
2023-02-02T07:13:10.851Z,0.83
2023-02-02T07:15:40.628Z,0.50
2023-02-02T07:18:07.553Z,1.37
2023-02-02T07:20:34.661Z,0.90
2023-02-02T07:23:04.385Z,1.47
2023-02-02T07:25:30.989Z,0.20
2023-02-02T07:27:57.573Z,1.20
2023-02-02T07:30:25.351Z,1.30
2023-02-02T07:32:52.107Z,0.73
2023-02-02T07:35:18.642Z,0.77
2023-02-02T07:37:54.375Z,0.87
2023-02-02T07:40:21.843Z,0.90
2023-02-02T07:42:49.279Z,0.87
2023-02-02T07:45:27.153Z,1.97
2023-02-02T07:47:59.033Z,1.17
2023-02-02T07:50:26.512Z,1.10
2023-02-02T07:52:53.257Z,0.93
2023-02-02T07:55:19.938Z,1.30
2023-02-02T07:57:46.575Z,0.83
2023-02-02T08:00:13.694Z,1.27
2023-02-02T08:02:40.380Z,1.00
2023-02-02T08:05:07.431Z,0.53
2023-02-02T08:07:35.121Z,1.37
2023-02-02T08:10:02.068Z,0.77
2023-02-02T08:12:28.852Z,1.57
2023-02-02T08:14:55.525Z,0.30
2023-02-02T08:17:23.219Z,0.60
2023-02-02T08:19:50.213Z,0.87
2023-02-02T08:22:18.355Z,0.40
2023-02-02T08:24:46.050Z,0.80
2023-02-02T08:27:12.629Z,0.77
2023-02-02T08:29:39.590Z,0.63
2023-02-02T08:32:06.231Z,1.30
2023-02-02T08:34:36.718Z,0.97
2023-02-02T08:37:03.983Z,0.53
2023-02-02T08:39:30.679Z,0.93
2023-02-02T08:41:57.648Z,1.30
2023-02-02T08:44:24.915Z,0.83
2023-02-02T08:46:53.643Z,0.23
2023-02-02T08:49:20.302Z,0.70
2023-02-02T08:51:46.936Z,0.70
2023-02-02T08:54:13.513Z,0.60
2023-02-02T08:56:40.087Z,1.70
2023-02-02T08:59:07.611Z,1.13
2023-02-02T09:01:35.488Z,1.07
2023-02-02T09:04:08.140Z,1.00
2023-02-02T09:06:40.625Z,1.20
2023-02-02T09:09:10.814Z,0.60
2023-02-02T09:11:38.591Z,1.30
2023-02-02T09:14:06.386Z,0.87
2023-02-02T09:16:34.761Z,0.67
2023-02-02T09:19:01.410Z,0.77
2023-02-02T09:21:28.049Z,0.93
2023-02-02T09:23:54.681Z,0.80
2023-02-02T09:26:29.040Z,1.43
2023-02-02T09:28:58.224Z,1.03
2023-02-02T09:31:25.928Z,0.67
2023-02-02T09:33:52.765Z,0.50
2023-02-02T09:36:21.685Z,1.40
2023-02-02T09:38:49.664Z,1.37
2023-02-02T09:41:37.726Z,1.27
2023-02-02T09:44:30.475Z,0.90
2023-02-02T09:47:21.292Z,0.73
2023-02-02T09:49:58.720Z,0.97
2023-02-02T09:52:34.591Z,1.07
2023-02-02T09:55:13.554Z,1.60
2023-02-02T09:57:45.758Z,1.00
2023-02-02T10:00:31.384Z,1.10
2023-02-02T10:03:04.393Z,0.70
2023-02-02T10:05:45.542Z,1.00
2023-02-02T10:08:35.386Z,1.33
2023-02-02T10:11:15.155Z,0.70
2023-02-02T10:13:43.881Z,1.33
2023-02-02T10:16:17.371Z,1.30
2023-02-02T10:18:49.982Z,1.03
2023-02-02T10:21:29.002Z,1.40
2023-02-02T10:23:57.918Z,1.77
2023-02-02T10:26:38.483Z,1.03
2023-02-02T10:29:19.024Z,1.30
2023-02-02T10:32:22.598Z,0.97
2023-02-02T10:35:17.140Z,1.10
2023-02-02T10:38:20.632Z,1.60
2023-02-02T10:41:06.669Z,1.50
2023-02-02T10:44:06.018Z,1.83
2023-02-02T10:46:42.943Z,1.37
2023-02-02T10:49:15.383Z,1.40
2023-02-02T10:51:49.253Z,1.30
2023-02-02T10:54:54.846Z,1.70
2023-02-02T10:57:46.011Z,0.80
2023-02-02T11:00:30.353Z,1.67
2023-02-02T11:02:57.160Z,1.30
2023-02-02T11:05:46.034Z,1.40
2023-02-02T11:08:13.479Z,0.93
2023-02-02T11:10:40.367Z,1.17
2023-02-02T11:13:11.973Z,1.07
2023-02-02T11:15:38.854Z,1.40
2023-02-02T11:18:29.005Z,1.00
2023-02-02T11:20:56.273Z,1.00
2023-02-02T11:23:26.055Z,1.00
2023-02-02T11:26:01.126Z,1.27
2023-02-02T11:28:32.313Z,0.97
2023-02-02T11:30:59.270Z,1.30
2023-02-02T11:33:36.338Z,1.40
2023-02-02T11:36:19.162Z,0.80
2023-02-02T11:38:45.765Z,1.20
2023-02-02T11:41:16.991Z,1.03
2023-02-02T11:43:53.521Z,1.00
2023-02-02T11:46:28.730Z,0.87
2023-02-02T11:49:03.114Z,1.07
2023-02-02T11:51:31.407Z,1.40
2023-02-02T11:54:17.823Z,1.27
2023-02-02T11:56:50.447Z,0.97
2023-02-02T11:59:34.478Z,1.03
2023-02-02T12:02:23.820Z,1.07
2023-02-02T12:05:19.492Z,1.17
2023-02-02T12:07:47.677Z,1.10
2023-02-02T12:10:40.602Z,1.10
2023-02-02T12:13:31.248Z,0.60
2023-02-02T12:16:33.735Z,0.80
2023-02-02T12:19:20.600Z,1.20
2023-02-02T12:21:53.307Z,1.00
2023-02-02T12:24:31.530Z,1.23
2023-02-02T12:27:13.304Z,0.63
2023-02-02T12:29:55.660Z,0.87
2023-02-02T12:32:57.703Z,0.93
2023-02-02T12:35:32.451Z,1.37
2023-02-02T12:38:20.721Z,1.53
2023-02-02T12:41:02.139Z,1.37
2023-02-02T12:43:37.616Z,1.10
2023-02-02T12:46:36.988Z,0.93
2023-02-02T12:49:25.185Z,1.10
2023-02-02T12:52:20.914Z,0.90
2023-02-02T12:54:59.651Z,0.67
2023-02-02T12:57:50.429Z,0.83
2023-02-02T13:00:29.034Z,0.87
2023-02-02T13:03:22.334Z,0.83
2023-02-02T13:06:02.358Z,0.70
2023-02-02T13:08:41.604Z,1.67
2023-02-02T13:11:31.077Z,1.60
2023-02-02T13:14:06.462Z,1.00
2023-02-02T13:16:36.911Z,1.03
2023-02-02T13:19:28.785Z,1.60
2023-02-02T13:21:58.583Z,0.83
2023-02-02T13:24:31.059Z,1.43
2023-02-02T13:27:01.406Z,1.07
2023-02-02T13:29:49.883Z,0.83
2023-02-02T13:32:39.584Z,1.07
2023-02-02T13:35:15.787Z,1.07
2023-02-02T13:38:04.903Z,0.87
2023-02-02T13:40:38.745Z,1.30
2023-02-02T13:43:25.197Z,0.90
2023-02-02T13:46:01.014Z,0.90
2023-02-02T13:48:46.046Z,1.27
2023-02-02T13:51:42.345Z,1.30
2023-02-02T13:54:47.225Z,1.20
2023-02-02T13:57:19.764Z,1.03
2023-02-02T14:00:19.384Z,0.95
2023-02-02T14:02:50.039Z,0.73
2023-02-02T14:05:30.424Z,1.90
2023-02-02T14:08:04.393Z,1.00
2023-02-02T14:10:36.784Z,0.83
2023-02-02T14:13:32.518Z,0.90
2023-02-02T14:16:02.001Z,0.70
2023-02-02T14:18:56.665Z,0.70
2023-02-02T14:21:32.519Z,1.20
2023-02-02T14:24:37.112Z,1.13
2023-02-02T14:27:09.820Z,0.80
2023-02-02T14:29:36.637Z,1.17
2023-02-02T14:32:12.338Z,1.20
2023-02-02T14:34:43.479Z,1.47
2023-02-02T14:37:26.102Z,1.23
2023-02-02T14:40:10.774Z,1.33
2023-02-02T14:43:23.564Z,1.17
2023-02-02T14:46:10.593Z,1.17
2023-02-02T14:48:39.034Z,1.07
2023-02-02T14:51:14.312Z,0.97
2023-02-02T14:53:49.624Z,1.33
2023-02-02T14:56:17.521Z,1.17
2023-02-02T14:59:00.030Z,1.00
2023-02-02T15:01:30.696Z,0.83
2023-02-02T15:04:19.951Z,0.77
2023-02-02T15:06:48.559Z,1.03
2023-02-02T15:09:26.301Z,0.60
2023-02-02T15:12:02.086Z,1.13
2023-02-02T15:15:06.183Z,0.70
2023-02-02T15:17:41.945Z,1.30
2023-02-02T15:20:28.395Z,0.90
2023-02-02T15:23:07.009Z,1.00
2023-02-02T15:25:54.320Z,0.80
2023-02-02T15:28:42.189Z,0.50
2023-02-02T15:31:19.727Z,1.07
2023-02-02T15:33:57.103Z,0.90
2023-02-02T15:36:37.317Z,0.80
2023-02-02T15:39:25.845Z,1.47
2023-02-02T15:42:16.077Z,0.93
2023-02-02T15:44:43.690Z,0.77
2023-02-02T15:47:17.560Z,1.30
2023-02-02T15:49:45.281Z,1.83
2023-02-02T15:52:15.486Z,0.90
2023-02-02T15:54:59.201Z,0.63
2023-02-02T15:57:34.625Z,0.97
2023-02-02T16:00:21.766Z,1.10
2023-02-02T16:02:56.431Z,1.00
2023-02-02T16:05:25.969Z,0.60
2023-02-02T16:08:05.095Z,1.00
2023-02-02T16:10:32.903Z,1.40
2023-02-02T16:12:59.514Z,1.47
2023-02-02T16:15:28.416Z,1.13
2023-02-02T16:18:00.027Z,0.57
2023-02-02T16:20:29.327Z,1.10
2023-02-02T16:23:01.971Z,1.00
2023-02-02T16:25:32.439Z,1.00
2023-02-02T16:28:00.839Z,0.90
2023-02-02T16:30:37.678Z,0.60
2023-02-02T16:33:42.805Z,1.25
2023-02-02T16:36:25.454Z,1.17
2023-02-02T16:38:54.101Z,1.20
2023-02-02T16:41:35.118Z,1.47
2023-02-02T16:44:40.308Z,1.17
2023-02-02T16:47:28.218Z,0.80
2023-02-02T16:50:07.697Z,0.90
2023-02-02T16:52:54.120Z,1.10
2023-02-02T16:55:21.641Z,0.97
2023-02-02T16:57:50.493Z,1.00
2023-02-02T17:00:26.046Z,1.13
2023-02-02T17:03:07.106Z,1.40
2023-02-02T17:05:47.528Z,0.70
2023-02-02T17:08:14.350Z,0.70
2023-02-02T17:10:43.658Z,0.67
2023-02-02T17:13:42.859Z,0.97
2023-02-02T17:16:16.142Z,0.77
2023-02-02T17:18:42.979Z,1.40
2023-02-02T17:21:15.080Z,1.13
2023-02-02T17:23:42.417Z,2.00
2023-02-02T17:26:10.706Z,1.37
2023-02-02T17:28:41.828Z,1.20
2023-02-02T17:31:15.933Z,1.23
2023-02-02T17:33:45.833Z,0.90
2023-02-02T17:36:13.113Z,1.00
2023-02-02T17:38:39.870Z,1.07
2023-02-02T17:41:07.066Z,1.07
2023-02-02T17:43:33.690Z,1.63
2023-02-02T17:46:02.260Z,1.30
2023-02-02T17:48:28.982Z,1.10
2023-02-02T17:50:55.570Z,1.33
2023-02-02T17:53:22.484Z,2.75
2023-02-02T17:55:51.297Z,1.90
2023-02-02T17:58:18.734Z,1.50
2023-02-02T18:00:53.661Z,1.20
2023-02-02T18:03:24.705Z,1.73
2023-02-02T18:05:51.615Z,1.50
2023-02-02T18:08:18.737Z,1.50
2023-02-02T18:10:45.533Z,2.27
2023-02-02T18:13:17.046Z,1.23
2023-02-02T18:15:44.018Z,1.93
2023-02-02T18:18:12.379Z,1.43
2023-02-02T18:20:43.169Z,2.37
2023-02-02T18:23:10.260Z,2.57
2023-02-02T18:25:37.663Z,1.33
2023-02-02T18:28:04.299Z,1.97
2023-02-02T18:30:30.981Z,1.67
2023-02-02T18:32:58.281Z,1.60
2023-02-02T18:35:25.612Z,2.00
2023-02-02T18:37:52.415Z,1.70
2023-02-02T18:40:19.300Z,2.10
2023-02-02T18:42:46.591Z,2.10
2023-02-02T18:45:13.183Z,1.77
2023-02-02T18:47:41.437Z,1.53
2023-02-02T18:50:08.884Z,2.33
2023-02-02T18:52:35.567Z,2.20
2023-02-02T18:55:02.361Z,1.60
2023-02-02T18:57:30.268Z,2.27
2023-02-02T18:59:56.823Z,2.00
2023-02-02T19:02:24.259Z,2.63
2023-02-02T19:05:09.567Z,2.30
2023-02-02T19:07:54.538Z,2.13
2023-02-02T19:10:22.582Z,2.27
2023-02-02T19:13:03.206Z,2.63
2023-02-02T19:15:38.407Z,2.70
2023-02-02T19:18:15.210Z,2.83
2023-02-02T19:20:42.389Z,2.37
2023-02-02T19:23:17.996Z,2.80
2023-02-02T19:25:51.037Z,2.13
2023-02-02T19:28:25.221Z,2.70
2023-02-02T19:30:57.744Z,3.43
2023-02-02T19:33:48.605Z,2.83
2023-02-02T19:36:18.797Z,2.67
2023-02-02T19:38:46.221Z,3.23
2023-02-02T19:41:20.105Z,2.53
2023-02-02T19:43:55.149Z,2.77
2023-02-02T19:46:24.288Z,2.60
2023-02-02T19:48:55.666Z,2.80
2023-02-02T19:51:37.157Z,2.87
2023-02-02T19:54:04.869Z,3.33
2023-02-02T19:56:38.289Z,2.30
2023-02-02T19:59:12.460Z,3.50
2023-02-02T20:01:40.411Z,3.30
2023-02-02T20:04:14.790Z,2.40
2023-02-02T20:06:56.748Z,3.40
2023-02-02T20:09:33.350Z,4.53
2023-02-02T20:12:00.409Z,3.53
2023-02-02T20:14:29.512Z,3.57
2023-02-02T20:17:31.725Z,2.97
2023-02-02T20:19:59.399Z,2.87
2023-02-02T20:22:28.826Z,2.83
2023-02-02T20:24:57.208Z,3.33
2023-02-02T20:27:26.732Z,3.20
2023-02-02T20:29:57.655Z,2.47
2023-02-02T20:32:26.530Z,3.37
2023-02-02T20:34:55.529Z,2.80
2023-02-02T20:37:26.790Z,3.00
2023-02-02T20:40:01.914Z,2.93
2023-02-02T20:42:29.512Z,3.13
2023-02-02T20:44:57.981Z,3.07
2023-02-02T20:47:24.755Z,3.73
2023-02-02T20:49:51.308Z,3.87
2023-02-02T20:52:23.786Z,3.27
2023-02-02T20:54:51.816Z,3.63
2023-02-02T20:57:18.867Z,3.10
2023-02-02T20:59:45.620Z,3.17
2023-02-02T21:02:19.291Z,3.30
2023-02-02T21:04:47.707Z,3.30
2023-02-02T21:07:16.861Z,3.00
2023-02-02T21:09:44.587Z,2.93
2023-02-02T21:12:11.450Z,3.10
2023-02-02T21:14:38.828Z,3.37
2023-02-02T21:17:14.771Z,4.00
2023-02-02T21:19:42.763Z,3.23
2023-02-02T21:22:09.459Z,3.27
2023-02-02T21:24:36.030Z,2.83
2023-02-02T21:27:04.321Z,2.60
2023-02-02T21:29:32.108Z,3.20
2023-02-02T21:32:02.077Z,3.53
2023-02-02T21:34:29.542Z,3.23
2023-02-02T21:36:58.004Z,3.00
2023-02-02T21:39:33.873Z,3.80
2023-02-02T21:42:09.381Z,2.40
2023-02-02T21:44:39.142Z,2.33
2023-02-02T21:47:26.406Z,3.33
2023-02-02T21:49:55.609Z,3.60
2023-02-02T21:52:22.473Z,3.47
2023-02-02T21:54:49.280Z,4.03
2023-02-02T21:57:21.620Z,3.43
2023-02-02T21:59:55.090Z,3.07
2023-02-02T22:02:44.630Z,2.80
2023-02-02T22:05:19.103Z,3.30
2023-02-02T22:07:48.902Z,2.53
2023-02-02T22:10:27.678Z,2.80
2023-02-02T22:12:54.546Z,2.63
2023-02-02T22:15:32.093Z,3.00
2023-02-02T22:17:58.961Z,2.93
2023-02-02T22:20:36.954Z,2.43
2023-02-02T22:23:03.883Z,2.13
2023-02-02T22:25:35.563Z,2.70
2023-02-02T22:28:18.253Z,2.87
2023-02-02T22:30:45.131Z,2.60
2023-02-02T22:33:13.525Z,2.80
2023-02-02T22:35:41.391Z,2.97
2023-02-02T22:38:08.253Z,2.93
2023-02-02T22:40:34.976Z,3.00
2023-02-02T22:43:05.525Z,3.00
2023-02-02T22:45:32.537Z,2.57
2023-02-02T22:47:59.270Z,2.73
2023-02-02T22:50:29.402Z,2.83
2023-02-02T22:52:56.675Z,2.77
2023-02-02T22:55:23.591Z,2.43
2023-02-02T22:57:50.179Z,3.20
2023-02-02T23:00:22.642Z,3.13
2023-02-02T23:02:49.460Z,2.20
2023-02-02T23:05:17.587Z,2.73
2023-02-02T23:07:45.028Z,2.43
2023-02-02T23:10:14.307Z,3.43
2023-02-02T23:12:42.145Z,3.63
2023-02-02T23:15:09.670Z,2.93
2023-02-02T23:17:36.442Z,3.97
2023-02-02T23:20:05.971Z,3.60
2023-02-02T23:22:32.985Z,2.07
2023-02-02T23:24:59.607Z,2.70
2023-02-02T23:27:26.756Z,2.80
2023-02-02T23:29:54.011Z,2.33
2023-02-02T23:32:20.581Z,3.30
2023-02-02T23:34:47.220Z,3.00
2023-02-02T23:37:13.885Z,2.83
2023-02-02T23:39:40.861Z,3.40
2023-02-02T23:42:07.405Z,2.80
2023-02-02T23:44:33.991Z,2.90
2023-02-02T23:47:02.503Z,3.00
2023-02-02T23:49:31.570Z,2.80
2023-02-02T23:51:58.332Z,2.40
2023-02-02T23:54:25.263Z,1.97
2023-02-02T23:56:52.076Z,2.33
2023-02-02T23:59:18.645Z,2.70
